Time;durP1;ratioP1;P1;durP2;ratioP2;P2;SDS_P1;SDS_P2;PMS_P1;PMS_P2;Temp;Humidity;BMP_temperature;BMP_pressure;BME280_temperature;BME280_humidity;BME280_pressure;Samples;Min_cycle;Max_cycle;Signal;HPM_P1;HPM_P2
2023/01/10 00:00:23;;;;;;;2.40;2.20;;;;;;;;;;5036663;28;20056;-83
2023/01/10 00:02:50;;;;;;;3.75;2.53;;;;;;;;;;5038319;28;20050;-83
2023/01/10 00:05:18;;;;;;;2.60;2.40;;;;;;;;;;5033660;28;20065;-83
2023/01/10 00:07:46;;;;;;;2.30;2.10;;;;;;;;;;5033115;28;20090;-83
2023/01/10 00:10:13;;;;;;;1.95;1.85;;;;;;;;;;5032418;28;20068;-83
2023/01/10 00:15:26;;;;;;;2.28;2.17;;;;;;;;;;5031286;28;20050;-83
2023/01/10 00:17:54;;;;;;;2.10;2.00;;;;;;;;;;5029780;28;20045;-83
2023/01/10 00:20:21;;;;;;;2.60;2.20;;;;;;;;;;5029207;28;20042;-82
2023/01/10 00:22:52;;;;;;;2.08;1.98;;;;;;;;;;5027988;28;20050;-83
2023/01/10 00:25:20;;;;;;;2.28;2.17;;;;;;;;;;5036718;28;20121;-83
2023/01/10 00:28:33;;;;;;;2.42;2.22;;;;;;;;;;5028893;28;20072;-83
2023/01/10 00:30:36;;;;;;;2.67;2.47;;;;;;;;;;5015084;28;20512;-83
2023/01/10 00:33:04;;;;;;;1.63;1.52;;;;;;;;;;5032288;28;20053;-83
2023/01/10 00:35:31;;;;;;;2.22;2.08;;;;;;;;;;5036954;28;20047;-83
2023/01/10 00:38:04;;;;;;;2.35;2.13;;;;;;;;;;5035648;28;20391;-82
2023/01/10 00:40:32;;;;;;;2.17;1.88;;;;;;;;;;5035712;28;20053;-82
2023/01/10 00:45:48;;;;;;;1.73;1.63;;;;;;;;;;5043407;28;20127;-82
2023/01/10 00:48:16;;;;;;;2.75;1.85;;;;;;;;;;5051750;28;20049;-82
2023/01/10 00:50:45;;;;;;;3.33;2.00;;;;;;;;;;5045932;28;20393;-82
2023/01/10 00:53:12;;;;;;;2.25;1.88;;;;;;;;;;5054189;28;20045;-83
2023/01/10 00:55:39;;;;;;;2.40;2.20;;;;;;;;;;5055226;28;20045;-82
2023/01/10 00:58:10;;;;;;;2.78;1.90;;;;;;;;;;5051202;28;20116;-83
2023/01/10 01:00:38;;;;;;;2.00;1.90;;;;;;;;;;5068683;22;20143;-82
2023/01/10 01:03:07;;;;;;;2.17;1.90;;;;;;;;;;5044278;28;20047;-84
2023/01/10 01:05:39;;;;;;;2.10;2.00;;;;;;;;;;5058215;28;20136;-83
2023/01/10 01:08:07;;;;;;;3.28;2.05;;;;;;;;;;5048560;28;20049;-83
2023/01/10 01:10:34;;;;;;;1.92;1.77;;;;;;;;;;5053717;28;20057;-82
2023/01/10 01:13:06;;;;;;;1.58;1.48;;;;;;;;;;5050499;28;20098;-83
2023/01/10 01:15:34;;;;;;;2.97;1.58;;;;;;;;;;5048698;28;20552;-83
2023/01/10 01:18:02;;;;;;;2.35;1.40;;;;;;;;;;5046713;28;20052;-83
2023/01/10 01:20:29;;;;;;;1.00;1.00;;;;;;;;;;5041527;28;20087;-83
2023/01/10 01:22:57;;;;;;;2.05;1.23;;;;;;;;;;5047763;28;20037;-83
2023/01/10 01:25:25;;;;;;;4.10;1.50;;;;;;;;;;5045920;28;20938;-83
2023/01/10 01:27:53;;;;;;;1.33;1.23;;;;;;;;;;5053572;28;20057;-84
2023/01/10 01:30:20;;;;;;;1.30;1.20;;;;;;;;;;5053642;28;20037;-83
2023/01/10 01:32:48;;;;;;;1.45;1.20;;;;;;;;;;5043318;28;20060;-82
2023/01/10 01:35:16;;;;;;;3.10;1.40;;;;;;;;;;5050218;28;20048;-83
2023/01/10 01:37:43;;;;;;;1.30;1.20;;;;;;;;;;5058806;28;20046;-83
2023/01/10 01:40:15;;;;;;;2.88;1.40;;;;;;;;;;5061432;28;20131;-83
2023/01/10 01:42:42;;;;;;;1.50;1.40;;;;;;;;;;5061603;28;20359;-82
2023/01/10 01:45:30;;;;;;;1.10;1.10;;;;;;;;;;5046193;28;20033;-82
2023/01/10 01:48:12;;;;;;;2.20;1.42;;;;;;;;;;5051157;28;20072;-82
2023/01/10 01:50:42;;;;;;;1.15;1.13;;;;;;;;;;5048516;28;20047;-82
2023/01/10 01:53:21;;;;;;;2.55;1.48;;;;;;;;;;5050590;28;20131;-82
2023/01/10 01:55:49;;;;;;;1.45;1.38;;;;;;;;;;5054755;28;20302;-82
2023/01/10 01:58:19;;;;;;;1.35;1.33;;;;;;;;;;5052438;28;20037;-82
2023/01/10 02:00:46;;;;;;;2.80;1.55;;;;;;;;;;5045157;28;20068;-82
2023/01/10 02:03:14;;;;;;;1.80;1.35;;;;;;;;;;5053497;28;20506;-83
2023/01/10 02:05:42;;;;;;;1.88;1.45;;;;;;;;;;5044943;28;20687;-82
2023/01/10 02:08:10;;;;;;;1.58;1.48;;;;;;;;;;5042515;28;20131;-82
2023/01/10 02:10:55;;;;;;;1.60;1.42;;;;;;;;;;5047754;28;20041;-82
2023/01/10 02:13:24;;;;;;;4.75;1.55;;;;;;;;;;5044667;28;20071;-82
2023/01/10 02:15:52;;;;;;;2.90;1.70;;;;;;;;;;5041137;28;20107;-82
2023/01/10 02:18:20;;;;;;;1.23;1.23;;;;;;;;;;5053307;28;20044;-82
2023/01/10 02:20:55;;;;;;;1.75;1.65;;;;;;;;;;5047472;28;20048;-82
2023/01/10 02:23:26;;;;;;;3.30;1.90;;;;;;;;;;5048279;28;20037;-82
2023/01/10 02:25:56;;;;;;;2.88;1.85;;;;;;;;;;5052101;28;20045;-82
2023/01/10 02:28:29;;;;;;;2.03;1.90;;;;;;;;;;5045245;28;20079;-82
2023/01/10 02:31:00;;;;;;;2.78;1.83;;;;;;;;;;5049086;28;20258;-82
2023/01/10 02:33:27;;;;;;;1.52;1.30;;;;;;;;;;5061253;28;20079;-82
2023/01/10 02:36:05;;;;;;;2.25;2.10;;;;;;;;;;5046348;28;20131;-82
2023/01/10 02:38:42;;;;;;;3.28;2.20;;;;;;;;;;5052137;28;20104;-82
2023/01/10 02:41:19;;;;;;;4.93;1.90;;;;;;;;;;5053260;28;20045;-82
2023/01/10 02:43:50;;;;;;;2.35;2.00;;;;;;;;;;5049441;28;20128;-82
2023/01/10 02:46:23;;;;;;;3.55;2.22;;;;;;;;;;5056534;28;20478;-82
2023/01/10 02:48:52;;;;;;;2.92;1.70;;;;;;;;;;5063099;28;20339;-83
2023/01/10 02:51:22;;;;;;;16.00;14.90;;;;;;;;;;5050614;28;20045;-82
2023/01/10 02:53:52;;;;;;;4.15;3.90;;;;;;;;;;5046351;28;20498;-82
2023/01/10 02:56:38;;;;;;;1.70;1.60;;;;;;;;;;5049538;28;20037;-82
2023/01/10 02:59:44;;;;;;;1.20;1.10;;;;;;;;;;5055729;28;20380;-83
2023/01/10 03:02:26;;;;;;;1.70;1.60;;;;;;;;;;5011113;28;20049;-82
2023/01/10 03:05:12;;;;;;;2.20;1.50;;;;;;;;;;5002923;28;20058;-82
2023/01/10 03:07:45;;;;;;;4.30;1.52;;;;;;;;;;5027524;28;21799;-82
2023/01/10 03:10:16;;;;;;;1.63;1.40;;;;;;;;;;5057794;28;20045;-82
2023/01/10 03:12:43;;;;;;;1.80;1.70;;;;;;;;;;5050465;28;20044;-82
2023/01/10 03:15:12;;;;;;;2.00;1.80;;;;;;;;;;5050196;28;20127;-83
2023/01/10 03:17:42;;;;;;;2.03;1.95;;;;;;;;;;5043665;28;20116;-83
2023/01/10 03:20:10;;;;;;;1.70;1.60;;;;;;;;;;5052595;28;20047;-83
2023/01/10 03:22:38;;;;;;;1.63;1.52;;;;;;;;;;5051634;28;20045;-83
2023/01/10 03:25:08;;;;;;;2.33;1.70;;;;;;;;;;5052970;28;20041;-83
2023/01/10 03:27:54;;;;;;;1.33;1.23;;;;;;;;;;5056940;28;20050;-83
2023/01/10 03:30:31;;;;;;;1.52;1.25;;;;;;;;;;5064224;28;20045;-82
2023/01/10 03:32:59;;;;;;;3.50;3.20;;;;;;;;;;5059878;28;20296;-82
2023/01/10 03:35:46;;;;;;;1.55;1.45;;;;;;;;;;5052893;28;20041;-83
2023/01/10 03:38:43;;;;;;;2.38;1.65;;;;;;;;;;5051541;28;20075;-83
2023/01/10 03:41:30;;;;;;;1.50;1.40;;;;;;;;;;5045468;28;20076;-82
2023/01/10 03:47:07;;;;;;;1.85;1.75;;;;;;;;;;5058716;28;20099;-83
2023/01/10 03:49:37;;;;;;;1.95;1.85;;;;;;;;;;5051697;28;20045;-82
2023/01/10 03:52:05;;;;;;;4.82;3.58;;;;;;;;;;5059320;28;20476;-82
2023/01/10 03:54:32;;;;;;;1.52;1.42;;;;;;;;;;5051567;28;20052;-82
2023/01/10 03:57:00;;;;;;;1.10;1.10;;;;;;;;;;5054873;28;20056;-82
2023/01/10 03:59:29;;;;;;;1.60;1.50;;;;;;;;;;5063789;28;20364;-83
2023/01/10 04:01:57;;;;;;;1.90;1.52;;;;;;;;;;5047597;28;20041;-83
2023/01/10 04:04:24;;;;;;;2.10;1.70;;;;;;;;;;5062268;28;21751;-83
2023/01/10 04:06:52;;;;;;;1.85;1.35;;;;;;;;;;5056670;28;20056;-82
2023/01/10 04:09:19;;;;;;;1.35;1.20;;;;;;;;;;5053455;28;20048;-82
2023/01/10 04:11:47;;;;;;;1.42;1.33;;;;;;;;;;5047824;28;20041;-83
2023/01/10 04:14:14;;;;;;;1.20;1.20;;;;;;;;;;5054449;28;20083;-83
2023/01/10 04:16:42;;;;;;;1.83;1.55;;;;;;;;;;5058211;28;20041;-83
2023/01/10 04:19:11;;;;;;;1.70;1.35;;;;;;;;;;5054860;28;20087;-81
2023/01/10 04:21:43;;;;;;;1.70;1.60;;;;;;;;;;5055584;28;20453;-83
2023/01/10 04:24:10;;;;;;;4.35;4.05;;;;;;;;;;5052171;28;20045;-85
2023/01/10 04:26:38;;;;;;;1.70;1.60;;;;;;;;;;5053511;28;20070;-81
2023/01/10 04:29:05;;;;;;;1.35;1.33;;;;;;;;;;5052140;28;20128;-86
2023/01/10 04:31:32;;;;;;;1.52;1.42;;;;;;;;;;5050901;28;20135;-84
2023/01/10 04:34:00;;;;;;;1.67;1.58;;;;;;;;;;5050436;28;20060;-82
2023/01/10 04:36:27;;;;;;;2.50;2.20;;;;;;;;;;5049958;28;20041;-84
2023/01/10 04:38:55;;;;;;;2.15;1.90;;;;;;;;;;5054162;28;20071;-82
2023/01/10 04:41:22;;;;;;;1.85;1.50;;;;;;;;;;5058824;28;20041;-81
2023/01/10 04:43:50;;;;;;;2.55;1.83;;;;;;;;;;5054502;28;20044;-83
2023/01/10 04:46:17;;;;;;;2.03;1.92;;;;;;;;;;5045741;28;20067;-82
2023/01/10 04:48:44;;;;;;;2.30;2.20;;;;;;;;;;5054077;28;20052;-84
2023/01/10 04:51:12;;;;;;;1.90;1.80;;;;;;;;;;5047702;28;20110;-83
2023/01/10 04:53:39;;;;;;;1.65;1.55;;;;;;;;;;5046653;28;20049;-82
2023/01/10 04:56:07;;;;;;;2.72;2.35;;;;;;;;;;5055029;28;20033;-84
2023/01/10 04:58:35;;;;;;;5.10;2.58;;;;;;;;;;5066294;28;20059;-84
2023/01/10 05:01:10;;;;;;;3.33;2.50;;;;;;;;;;5068218;28;20064;-86
2023/01/10 05:03:37;;;;;;;2.58;2.05;;;;;;;;;;5046522;28;20044;-82
2023/01/10 05:06:05;;;;;;;2.50;2.38;;;;;;;;;;5045558;28;20045;-85
2023/01/10 05:08:33;;;;;;;2.08;1.83;;;;;;;;;;5050851;28;20041;-84
2023/01/10 05:11:00;;;;;;;2.28;2.00;;;;;;;;;;5051972;28;20037;-82
2023/01/10 05:13:27;;;;;;;4.90;4.65;;;;;;;;;;5053740;28;20132;-82
2023/01/10 05:15:56;;;;;;;1.55;1.45;;;;;;;;;;5052265;28;20042;-84
2023/01/10 05:18:28;;;;;;;1.20;1.20;;;;;;;;;;5063783;28;20109;-84
2023/01/10 05:21:02;;;;;;;2.00;1.67;;;;;;;;;;5060372;28;20049;-81
2023/01/10 05:23:30;;;;;;;5.70;5.28;;;;;;;;;;5063559;28;20141;-83
2023/01/10 05:25:57;;;;;;;1.55;1.45;;;;;;;;;;5049031;28;20045;-81
2023/01/10 05:28:24;;;;;;;3.95;3.75;;;;;;;;;;5063367;28;20048;-84
2023/01/10 05:30:52;;;;;;;8.07;7.40;;;;;;;;;;5048033;28;20087;-84
2023/01/10 05:33:19;;;;;;;1.42;1.35;;;;;;;;;;5050040;28;20545;-82
2023/01/10 05:35:46;;;;;;;1.27;1.23;;;;;;;;;;5058114;28;20041;-84
2023/01/10 05:38:14;;;;;;;2.15;1.30;;;;;;;;;;5058982;28;20122;-83
2023/01/10 05:40:42;;;;;;;1.30;1.20;;;;;;;;;;5055226;28;20411;-84
2023/01/10 05:43:10;;;;;;;1.10;1.10;;;;;;;;;;5053407;28;20044;-84
2023/01/10 05:45:38;;;;;;;1.50;1.50;;;;;;;;;;5046008;28;20052;-81
2023/01/10 05:48:05;;;;;;;4.78;3.95;;;;;;;;;;5056348;28;20045;-83
2023/01/10 05:50:33;;;;;;;1.75;1.65;;;;;;;;;;5051229;28;20059;-84
2023/01/10 05:53:04;;;;;;;1.20;1.20;;;;;;;;;;5060420;28;20045;-82
2023/01/10 05:55:31;;;;;;;2.17;2.08;;;;;;;;;;5041216;28;20056;-84
2023/01/10 05:57:59;;;;;;;1.58;1.48;;;;;;;;;;5055818;28;20041;-85
2023/01/10 06:00:27;;;;;;;2.53;1.45;;;;;;;;;;5052438;28;20069;-83
2023/01/10 06:02:55;;;;;;;1.88;1.45;;;;;;;;;;5042614;28;20049;-82
2023/01/10 06:05:23;;;;;;;1.42;1.33;;;;;;;;;;5052916;28;20127;-82
2023/01/10 06:07:50;;;;;;;1.55;1.45;;;;;;;;;;5047443;28;20072;-83
2023/01/10 06:10:18;;;;;;;1.80;1.70;;;;;;;;;;5050194;28;20052;-82
2023/01/10 06:12:48;;;;;;;2.15;1.70;;;;;;;;;;5048923;28;20062;-83
2023/01/10 06:15:16;;;;;;;2.85;1.60;;;;;;;;;;5054773;28;20041;-83
2023/01/10 06:17:44;;;;;;;3.55;1.70;;;;;;;;;;5055506;28;20044;-82
2023/01/10 06:20:12;;;;;;;1.65;1.55;;;;;;;;;;5059506;28;20109;-86
2023/01/10 06:22:41;;;;;;;3.90;2.08;;;;;;;;;;5050672;28;20113;-83
2023/01/10 06:25:09;;;;;;;1.85;1.75;;;;;;;;;;5043026;28;20558;-82
2023/01/10 06:27:40;;;;;;;1.90;1.80;;;;;;;;;;5054994;28;20538;-81
2023/01/10 06:30:08;;;;;;;2.55;2.35;;;;;;;;;;5048588;28;20517;-83
2023/01/10 06:32:36;;;;;;;3.75;2.10;;;;;;;;;;5044323;28;20605;-84
2023/01/10 06:35:03;;;;;;;2.53;2.42;;;;;;;;;;5052786;28;20053;-82
2023/01/10 06:37:31;;;;;;;2.15;2.03;;;;;;;;;;5045182;28;20051;-82
2023/01/10 06:39:58;;;;;;;2.60;2.40;;;;;;;;;;5044090;28;20105;-85
2023/01/10 06:42:26;;;;;;;2.53;2.40;;;;;;;;;;5051298;28;20052;-83
2023/01/10 06:44:53;;;;;;;2.63;2.42;;;;;;;;;;5048542;28;20102;-80
2023/01/10 06:47:21;;;;;;;2.67;2.47;;;;;;;;;;5043488;28;20075;-83
2023/01/10 06:49:48;;;;;;;2.80;2.60;;;;;;;;;;5045849;28;20041;-82
2023/01/10 06:52:15;;;;;;;3.00;2.80;;;;;;;;;;5046029;28;20053;-83
2023/01/10 06:54:43;;;;;;;3.75;2.97;;;;;;;;;;5044769;28;20128;-84
2023/01/10 06:57:11;;;;;;;3.53;3.05;;;;;;;;;;5048133;28;20055;-82
2023/01/10 06:59:38;;;;;;;2.60;2.40;;;;;;;;;;5115203;22;20073;-85
2023/01/10 07:02:05;;;;;;;2.95;2.75;;;;;;;;;;5032898;28;20048;-80
2023/01/10 07:04:33;;;;;;;3.70;2.67;;;;;;;;;;5033546;28;20045;-81
2023/01/10 07:07:01;;;;;;;1.92;1.83;;;;;;;;;;5034766;28;20048;-81
2023/01/10 07:09:28;;;;;;;3.28;2.90;;;;;;;;;;5035504;28;20049;-80
2023/01/10 07:11:55;;;;;;;2.67;2.47;;;;;;;;;;5039638;28;20117;-81
2023/01/10 07:14:23;;;;;;;3.03;2.83;;;;;;;;;;5038409;28;20047;-81
2023/01/10 07:16:51;;;;;;;2.67;2.58;;;;;;;;;;5033806;28;20067;-81
2023/01/10 07:19:18;;;;;;;3.35;3.10;;;;;;;;;;5038155;28;20065;-81
2023/01/10 07:21:46;;;;;;;3.00;2.80;;;;;;;;;;5037412;28;20050;-81
2023/01/10 07:24:13;;;;;;;5.97;3.30;;;;;;;;;;5033426;28;20049;-81
2023/01/10 07:26:41;;;;;;;3.72;3.17;;;;;;;;;;5030075;28;20479;-80
2023/01/10 07:29:08;;;;;;;3.95;3.00;;;;;;;;;;5032717;28;20569;-80
2023/01/10 07:31:36;;;;;;;3.08;2.88;;;;;;;;;;5032126;28;20046;-80
2023/01/10 07:34:03;;;;;;;6.63;4.20;;;;;;;;;;5032410;28;20551;-80
2023/01/10 07:36:31;;;;;;;3.83;3.42;;;;;;;;;;5031232;28;20071;-82
2023/01/10 07:38:58;;;;;;;4.53;4.13;;;;;;;;;;5049732;28;20130;-81
2023/01/10 07:41:26;;;;;;;13.27;12.20;;;;;;;;;;5032110;28;20393;-81
2023/01/10 07:43:54;;;;;;;5.32;4.88;;;;;;;;;;5020386;28;20136;-81
2023/01/10 07:46:22;;;;;;;4.20;3.90;;;;;;;;;;5026740;28;20073;-81
2023/01/10 07:48:49;;;;;;;4.65;4.00;;;;;;;;;;5039982;28;20046;-81
2023/01/10 07:51:17;;;;;;;5.60;4.50;;;;;;;;;;5035268;28;20148;-81
2023/01/10 07:53:44;;;;;;;4.28;3.97;;;;;;;;;;5032867;28;20049;-82
2023/01/10 07:56:12;;;;;;;4.07;3.70;;;;;;;;;;5042057;28;20045;-81
2023/01/10 07:58:39;;;;;;;5.45;4.15;;;;;;;;;;5031427;28;20788;-82
2023/01/10 08:01:07;;;;;;;3.70;3.28;;;;;;;;;;5025369;28;20077;-81
2023/01/10 08:03:35;;;;;;;3.15;2.95;;;;;;;;;;5027869;28;20068;-81
2023/01/10 08:06:06;;;;;;;3.67;3.38;;;;;;;;;;5022560;28;20461;-81
2023/01/10 08:08:34;;;;;;;3.47;3.22;;;;;;;;;;5024021;28;20042;-80
2023/01/10 08:11:01;;;;;;;9.02;8.43;;;;;;;;;;5034047;28;20119;-81
2023/01/10 08:13:29;;;;;;;3.75;3.45;;;;;;;;;;5040680;28;20058;-81
2023/01/10 08:15:57;;;;;;;4.10;3.60;;;;;;;;;;5028332;28;20042;-81
2023/01/10 08:18:25;;;;;;;5.28;4.40;;;;;;;;;;5029535;28;20091;-80
2023/01/10 08:20:53;;;;;;;3.90;3.50;;;;;;;;;;5033567;28;20064;-80
2023/01/10 08:23:20;;;;;;;4.90;3.78;;;;;;;;;;5023486;28;20050;-80
2023/01/10 08:25:49;;;;;;;4.35;3.95;;;;;;;;;;5034515;28;20049;-80
2023/01/10 08:28:17;;;;;;;4.45;4.03;;;;;;;;;;5037032;28;20618;-80
2023/01/10 08:30:44;;;;;;;4.70;3.35;;;;;;;;;;5047932;28;20045;-80
2023/01/10 08:33:12;;;;;;;4.03;3.63;;;;;;;;;;5034127;28;20140;-80
2023/01/10 08:35:41;;;;;;;6.38;4.53;;;;;;;;;;5035211;28;20454;-80
2023/01/10 08:38:08;;;;;;;3.80;3.50;;;;;;;;;;5031560;28;20122;-80
2023/01/10 08:40:36;;;;;;;5.07;4.15;;;;;;;;;;5027717;28;20063;-80
2023/01/10 08:43:09;;;;;;;4.10;3.80;;;;;;;;;;5030313;28;20060;-79
2023/01/10 08:45:37;;;;;;;4.25;3.95;;;;;;;;;;5023660;28;20092;-80
2023/01/10 08:48:05;;;;;;;4.75;4.20;;;;;;;;;;5030849;28;20040;-80
2023/01/10 08:50:33;;;;;;;4.18;3.78;;;;;;;;;;5056014;28;20512;-80
2023/01/10 08:53:00;;;;;;;4.18;3.78;;;;;;;;;;5032011;28;20048;-80
2023/01/10 08:55:30;;;;;;;4.40;3.95;;;;;;;;;;5032223;28;20091;-80
2023/01/10 08:58:00;;;;;;;4.10;3.65;;;;;;;;;;5040464;28;20914;-81
2023/01/10 09:00:28;;;;;;;4.80;4.30;;;;;;;;;;5030496;28;20143;-81
2023/01/10 09:02:55;;;;;;;5.95;3.50;;;;;;;;;;5031874;28;20647;-80
2023/01/10 09:05:24;;;;;;;4.43;4.00;;;;;;;;;;5029539;28;20048;-80
2023/01/10 09:07:59;;;;;;;5.32;5.00;;;;;;;;;;5028066;28;20131;-81
2023/01/10 09:10:29;;;;;;;3.72;3.42;;;;;;;;;;5035463;28;20081;-81
2023/01/10 09:13:00;;;;;;;33.95;30.83;;;;;;;;;;5053418;28;20052;-80
2023/01/10 09:15:30;;;;;;;4.15;3.75;;;;;;;;;;5033015;28;20103;-80
2023/01/10 09:17:59;;;;;;;4.70;3.88;;;;;;;;;;5036719;28;20083;-80
2023/01/10 09:20:28;;;;;;;5.35;3.38;;;;;;;;;;5031168;28;20595;-80
2023/01/10 09:22:55;;;;;;;22.63;20.30;;;;;;;;;;5076354;22;20118;-78
2023/01/10 09:25:23;;;;;;;3.55;3.33;;;;;;;;;;5072067;28;20576;-80
2023/01/10 09:28:01;;;;;;;3.03;2.80;;;;;;;;;;5098827;28;20108;-81
2023/01/10 09:30:29;;;;;;;2.72;2.53;;;;;;;;;;5089718;28;20136;-80
2023/01/10 09:32:57;;;;;;;3.97;3.63;;;;;;;;;;5089845;28;20129;-79
2023/01/10 09:35:25;;;;;;;3.45;3.10;;;;;;;;;;5090044;28;20044;-80
2023/01/10 09:37:53;;;;;;;3.70;3.40;;;;;;;;;;5089967;28;20044;-81
2023/01/10 09:40:44;;;;;;;3.00;2.80;;;;;;;;;;5059156;28;20046;-80
2023/01/10 09:43:18;;;;;;;2.60;2.45;;;;;;;;;;5057182;28;20096;-81
2023/01/10 09:45:46;;;;;;;3.10;2.90;;;;;;;;;;5094023;28;20052;-81
2023/01/10 09:48:17;;;;;;;3.53;2.60;;;;;;;;;;5089503;28;20062;-80
2023/01/10 09:50:51;;;;;;;4.40;2.60;;;;;;;;;;5089211;28;20559;-80
2023/01/10 09:53:28;;;;;;;2.42;2.22;;;;;;;;;;5071473;28;20063;-81
2023/01/10 09:55:58;;;;;;;5.13;3.38;;;;;;;;;;5089640;28;20056;-80
2023/01/10 09:58:30;;;;;;;3.05;2.75;;;;;;;;;;5089803;28;20051;-80
2023/01/10 10:00:58;;;;;;;;;;;;;;;;;;5089622;28;20058;-81
2023/01/10 10:03:25;;;;;;;26.05;24.40;;;;;;;;;;5089827;28;19931;-79
2023/01/10 10:05:53;;;;;;;2.90;2.70;;;;;;;;;;5089649;28;20059;-80
2023/01/10 10:08:33;;;;;;;3.00;2.80;;;;;;;;;;5091408;28;20048;-80
2023/01/10 10:11:19;;;;;;;30.38;28.00;;;;;;;;;;5090490;28;20087;-81
2023/01/10 10:13:53;;;;;;;3.33;3.03;;;;;;;;;;5090259;28;20056;-80
2023/01/10 10:16:39;;;;;;;3.45;3.10;;;;;;;;;;5089296;28;20044;-80
2023/01/10 10:19:33;;;;;;;8.23;7.22;;;;;;;;;;5089566;28;20051;-80
2023/01/10 10:22:10;;;;;;;2.88;2.67;;;;;;;;;;5086173;28;20047;-79
2023/01/10 10:24:56;;;;;;;3.22;2.90;;;;;;;;;;5071857;28;20051;-79
2023/01/10 10:27:35;;;;;;;3.30;2.92;;;;;;;;;;5088809;28;20072;-80
2023/01/10 10:30:17;;;;;;;6.85;6.45;;;;;;;;;;5088567;28;20093;-79
2023/01/10 10:32:49;;;;;;;3.40;3.10;;;;;;;;;;5087816;28;20540;-80
2023/01/10 10:35:22;;;;;;;24.63;22.15;;;;;;;;;;5089880;28;20067;-79
2023/01/10 10:37:51;;;;;;;4.07;3.78;;;;;;;;;;5089098;28;20082;-79
2023/01/10 10:40:28;;;;;;;3.75;3.15;;;;;;;;;;5088994;28;20058;-80
2023/01/10 10:42:56;;;;;;;2.70;2.50;;;;;;;;;;5071345;28;20512;-80
2023/01/10 10:45:30;;;;;;;3.95;3.58;;;;;;;;;;5089648;28;20588;-80
2023/01/10 10:48:11;;;;;;;2.80;2.60;;;;;;;;;;5090014;28;20052;-81
2023/01/10 10:50:44;;;;;;;3.95;3.30;;;;;;;;;;5090018;28;20353;-80
2023/01/10 10:53:12;;;;;;;10.32;8.43;;;;;;;;;;5089050;28;20048;-80
2023/01/10 10:55:39;;;;;;;5.90;5.43;;;;;;;;;;5071567;28;20426;-80
2023/01/10 10:58:09;;;;;;;4.22;3.38;;;;;;;;;;5088630;28;20040;-80
2023/01/10 11:00:36;;;;;;;3.90;3.38;;;;;;;;;;5071088;28;20044;-80
2023/01/10 11:03:13;;;;;;;3.65;3.35;;;;;;;;;;5090520;28;20055;-81
2023/01/10 11:05:42;;;;;;;3.40;3.10;;;;;;;;;;5094238;28;20052;-80
2023/01/10 11:08:18;;;;;;;15.98;14.32;;;;;;;;;;5095528;28;20079;-80
2023/01/10 11:10:47;;;;;;;3.40;3.10;;;;;;;;;;5090604;28;20066;-80
2023/01/10 11:13:27;;;;;;;3.17;2.85;;;;;;;;;;5074528;28;20047;-80
2023/01/10 11:15:54;;;;;;;4.78;4.38;;;;;;;;;;5092755;28;20482;-81
2023/01/10 11:18:24;;;;;;;4.68;3.58;;;;;;;;;;5093094;28;20161;-79
2023/01/10 11:21:00;;;;;;;9.00;3.88;;;;;;;;;;5092147;28;20040;-79
2023/01/10 11:23:47;;;;;;;3.65;3.30;;;;;;;;;;5091607;28;20054;-79
2023/01/10 11:26:26;;;;;;;4.72;4.32;;;;;;;;;;5074384;28;20047;-79
2023/01/10 11:29:06;;;;;;;8.07;7.43;;;;;;;;;;5072988;28;20051;-80
2023/01/10 11:31:35;;;;;;;5.50;2.83;;;;;;;;;;5091606;28;20052;-78
2023/01/10 11:34:05;;;;;;;4.38;3.60;;;;;;;;;;5091419;28;20433;-79
2023/01/10 11:36:53;;;;;;;58.58;54.20;;;;;;;;;;5092541;28;20040;-80
2023/01/10 11:39:20;;;;;;;3.40;3.20;;;;;;;;;;5093189;28;20120;-80
2023/01/10 11:41:48;;;;;;;7.88;7.13;;;;;;;;;;5073703;28;20044;-80
2023/01/10 11:44:28;;;;;;;15.55;14.30;;;;;;;;;;5092837;28;20489;-80
2023/01/10 11:47:01;;;;;;;3.92;3.10;;;;;;;;;;5093262;28;20083;-79
2023/01/10 11:49:48;;;;;;;6.25;4.93;;;;;;;;;;5075849;28;20410;-80
2023/01/10 11:52:15;;;;;;;2.90;2.67;;;;;;;;;;5094775;28;20134;-80
2023/01/10 11:54:43;;;;;;;2.88;2.55;;;;;;;;;;5093172;28;20391;-80
2023/01/10 11:57:30;;;;;;;2.97;2.70;;;;;;;;;;5073948;28;20549;-79
2023/01/10 12:00:00;;;;;;;4.78;2.60;;;;;;;;;;5092471;28;20044;-81
2023/01/10 12:02:28;;;;;;;2.60;2.38;;;;;;;;;;5092276;28;20040;-80
2023/01/10 12:04:58;;;;;;;2.33;2.13;;;;;;;;;;5092052;28;20086;-79
2023/01/10 12:07:26;;;;;;;2.40;2.15;;;;;;;;;;5091901;28;20588;-80
2023/01/10 12:09:53;;;;;;;2.90;2.70;;;;;;;;;;5074311;28;20039;-81
2023/01/10 12:12:28;;;;;;;3.38;1.98;;;;;;;;;;5091982;28;20062;-80
2023/01/10 12:15:19;;;;;;;2.03;1.92;;;;;;;;;;5091773;28;20059;-80
2023/01/10 12:17:47;;;;;;;4.72;4.25;;;;;;;;;;5090129;28;20055;-80
2023/01/10 12:20:15;;;;;;;19.48;17.88;;;;;;;;;;5082656;28;20441;-80
2023/01/10 12:23:03;;;;;;;1.60;1.50;;;;;;;;;;5082728;28;20047;-80
2023/01/10 12:25:33;;;;;;;88.30;81.57;;;;;;;;;;5090703;28;20072;-79
2023/01/10 12:28:01;;;;;;;28.75;26.67;;;;;;;;;;5078901;28;20052;-81
2023/01/10 12:30:31;;;;;;;1.40;1.30;;;;;;;;;;5098272;28;20059;-80
2023/01/10 12:33:00;;;;;;;10.25;9.50;;;;;;;;;;5090015;28;20044;-79
2023/01/10 12:35:39;;;;;;;30.85;27.95;;;;;;;;;;5090929;28;20520;-80
2023/01/10 12:38:20;;;;;;;101.82;94.15;;;;;;;;;;5084926;28;20374;-81
2023/01/10 12:40:57;;;;;;;1.15;1.10;;;;;;;;;;5089882;28;20079;-80
2023/01/10 12:46:15;;;;;;;12.40;11.32;;;;;;;;;;5086752;28;20060;-80
2023/01/10 12:49:12;;;;;;;1.48;1.20;;;;;;;;;;5050456;28;20048;-80
2023/01/10 12:51:40;;;;;;;4.10;3.70;;;;;;;;;;5083175;28;20060;-79
2023/01/10 12:54:28;;;;;;;4.05;1.48;;;;;;;;;;5089168;28;20448;-80
2023/01/10 12:56:58;;;;;;;40.63;37.67;;;;;;;;;;5089072;28;20381;-79
2023/01/10 12:59:36;;;;;;;1.83;1.60;;;;;;;;;;5078086;28;20052;-80
2023/01/10 13:02:06;;;;;;;1.83;1.38;;;;;;;;;;5089659;28;20036;-81
2023/01/10 13:04:36;;;;;;;5.82;5.28;;;;;;;;;;5059485;28;20044;-80
2023/01/10 13:07:04;;;;;;;3.30;1.73;;;;;;;;;;5081157;28;20046;-80
2023/01/10 13:09:32;;;;;;;4.65;2.97;;;;;;;;;;5089040;28;20056;-80
2023/01/10 13:11:59;;;;;;;3.00;1.95;;;;;;;;;;5088439;28;20079;-80
2023/01/10 13:14:43;;;;;;;66.50;61.38;;;;;;;;;;5088799;28;20063;-81
2023/01/10 13:17:25;;;;;;;7.45;7.03;;;;;;;;;;5088267;28;20072;-80
2023/01/10 13:19:52;;;;;;;;;;;;;;;;;;5087903;28;20072;-80
2023/01/10 13:22:21;;;;;;;5.10;4.80;;;;;;;;;;5089114;28;20464;-80
2023/01/10 13:24:59;;;;;;;2.47;1.60;;;;;;;;;;5084162;28;20102;-80
2023/01/10 13:27:33;;;;;;;3.50;2.72;;;;;;;;;;5068765;28;20521;-80
2023/01/10 13:30:02;;;;;;;2.65;1.67;;;;;;;;;;5055254;28;20044;-80
2023/01/10 13:32:32;;;;;;;3.90;1.70;;;;;;;;;;5088495;28;20536;-79
2023/01/10 13:35:10;;;;;;;6.93;5.63;;;;;;;;;;5088614;28;20134;-80
2023/01/10 13:37:39;;;;;;;2.47;1.75;;;;;;;;;;5088301;28;20093;-80
2023/01/10 13:40:07;;;;;;;2.55;2.13;;;;;;;;;;5088926;28;20048;-80
2023/01/10 13:45:22;;;;;;;19.67;17.77;;;;;;;;;;5089382;28;20040;-79
2023/01/10 13:47:54;;;;;;;2.33;2.13;;;;;;;;;;5070134;28;20517;-79
2023/01/10 13:50:24;;;;;;;5.03;2.10;;;;;;;;;;5089302;28;20048;-79
2023/01/10 13:53:15;;;;;;;2.65;2.38;;;;;;;;;;5088199;28;20136;-79
2023/01/10 13:55:44;;;;;;;4.93;2.40;;;;;;;;;;5093692;28;20048;-80
2023/01/10 13:58:15;;;;;;;4.65;2.50;;;;;;;;;;5071081;28;20093;-81
2023/01/10 14:03:43;;;;;;;7.95;7.13;;;;;;;;;;5088029;28;20139;-79
2023/01/10 14:06:18;;;;;;;5.63;2.72;;;;;;;;;;5068376;28;20044;-81
2023/01/10 14:08:50;;;;;;;3.20;2.88;;;;;;;;;;5085434;28;20442;-79
2023/01/10 14:11:19;;;;;;;5.60;2.55;;;;;;;;;;5087630;28;20044;-79
2023/01/10 14:13:56;;;;;;;4.68;2.97;;;;;;;;;;5069179;28;20052;-80
2023/01/10 14:16:26;;;;;;;3.50;3.15;;;;;;;;;;5097588;28;20039;-81
2023/01/10 14:18:53;;;;;;;6.82;3.67;;;;;;;;;;5092510;28;20050;-80
2023/01/10 14:21:23;;;;;;;5.38;3.40;;;;;;;;;;5068107;28;20404;-79
2023/01/10 14:23:52;;;;;;;6.78;3.35;;;;;;;;;;5084821;28;20450;-80
2023/01/10 14:26:32;;;;;;;6.45;2.90;;;;;;;;;;5087700;28;20138;-80
2023/01/10 14:29:01;;;;;;;3.63;2.83;;;;;;;;;;5065245;28;20110;-80
2023/01/10 14:31:30;;;;;;;6.53;2.70;;;;;;;;;;5074145;28;20062;-80
2023/01/10 14:33:59;;;;;;;5.80;3.63;;;;;;;;;;5068880;28;20059;-80
2023/01/10 14:36:32;;;;;;;6.30;3.22;;;;;;;;;;5085724;28;20159;-81
2023/01/10 14:39:02;;;;;;;13.75;12.85;;;;;;;;;;5066356;28;20044;-79
2023/01/10 14:41:40;;;;;;;3.92;2.60;;;;;;;;;;5084609;28;20040;-80
2023/01/10 14:44:09;;;;;;;4.50;2.67;;;;;;;;;;5073197;28;20028;-81
2023/01/10 14:46:47;;;;;;;8.68;7.90;;;;;;;;;;5089256;28;20520;-81
2023/01/10 14:49:24;;;;;;;3.13;2.20;;;;;;;;;;5088151;28;20565;-80
2023/01/10 14:51:52;;;;;;;4.85;2.40;;;;;;;;;;5068833;28;20242;-80
2023/01/10 14:54:22;;;;;;;2.60;2.40;;;;;;;;;;5089928;28;20105;-80
2023/01/10 14:56:51;;;;;;;2.55;2.10;;;;;;;;;;5090195;28;20598;-81
2023/01/10 14:59:29;;;;;;;4.32;2.97;;;;;;;;;;5073551;28;20044;-81
2023/01/10 15:02:01;;;;;;;5.55;2.58;;;;;;;;;;5092255;28;20082;-81
2023/01/10 15:04:31;;;;;;;3.10;2.70;;;;;;;;;;5092422;28;20055;-80
2023/01/10 15:07:01;;;;;;;4.93;2.53;;;;;;;;;;5092407;28;20090;-81
2023/01/10 15:09:29;;;;;;;9.25;2.28;;;;;;;;;;5092294;28;20131;-79
2023/01/10 15:12:01;;;;;;;5.90;2.60;;;;;;;;;;5092139;28;20131;-80
2023/01/10 15:14:29;;;;;;;3.88;2.13;;;;;;;;;;5095827;28;20044;-80
2023/01/10 15:16:59;;;;;;;5.93;2.13;;;;;;;;;;5097158;28;20044;-80
2023/01/10 15:19:32;;;;;;;5.57;2.92;;;;;;;;;;5093004;28;20312;-79
2023/01/10 15:22:00;;;;;;;6.50;2.85;;;;;;;;;;5072532;28;20047;-82